Time;durP1;ratioP1;P1;durP2;ratioP2;P2;SDS_P1;SDS_P2;PMS_P1;PMS_P2;Temp;Humidity;BMP_temperature;BMP_pressure;BME280_temperature;BME280_humidity;BME280_pressure;Samples;Min_cycle;Max_cycle;Signal;HPM_P1;HPM_P2
2021/04/29 00:01:58;;;;;;;3.53;2.03;;;20.80;31.40;;;;;;8391078;28;20066;-58
2021/04/29 00:05:59;;;;;;;2.27;1.87;;;20.70;31.30;;;;;;8389106;28;20522;-58
2021/04/29 00:10:01;;;;;;;2.43;1.77;;;20.80;31.50;;;;;;8382168;28;20402;-58
2021/04/29 00:14:04;;;;;;;2.70;1.70;;;20.70;31.50;;;;;;8379773;28;20051;-58
2021/04/29 00:18:05;;;;;;;3.08;2.05;;;20.80;31.60;;;;;;8390522;28;20044;-58
2021/04/29 00:22:05;;;;;;;3.23;1.97;;;20.70;31.50;;;;;;8390809;28;20123;-58
2021/04/29 00:26:06;;;;;;;2.57;1.97;;;20.70;31.50;;;;;;8390995;28;20033;-58
2021/04/29 00:30:08;;;;;;;2.87;2.13;;;20.70;31.60;;;;;;8388328;28;20132;-58
2021/04/29 00:34:09;;;;;;;4.00;2.10;;;20.70;31.60;;;;;;8394879;28;20076;-58
2021/04/29 00:38:10;;;;;;;2.43;1.67;;;20.70;31.70;;;;;;8364262;28;20118;-58
2021/04/29 00:42:10;;;;;;;2.17;1.67;;;20.70;31.60;;;;;;8373194;28;20037;-58
2021/04/29 00:46:14;;;;;;;2.43;1.93;;;20.70;31.70;;;;;;8390696;28;20458;-58
2021/04/29 00:50:15;;;;;;;2.35;1.88;;;20.70;31.60;;;;;;8395055;28;20039;-58
2021/04/29 00:54:16;;;;;;;3.08;1.95;;;20.70;31.50;;;;;;8388513;28;20054;-58
2021/04/29 00:58:16;;;;;;;4.10;2.17;;;20.70;31.60;;;;;;8369246;28;20382;-58
2021/04/29 01:02:17;;;;;;;4.03;1.83;;;20.70;31.60;;;;;;8368843;28;20530;-58
2021/04/29 01:06:31;;;;;;;3.93;2.03;;;20.70;31.60;;;;;;8388510;28;20063;-58
2021/04/29 01:10:52;;;;;;;3.22;1.98;;;20.60;31.60;;;;;;8394857;28;20308;-58
2021/04/29 01:14:57;;;;;;;1.77;1.47;;;20.60;31.60;;;;;;8390031;28;20040;-58
2021/04/29 01:18:58;;;;;;;2.22;1.60;;;20.60;31.50;;;;;;8388535;28;20362;-58
2021/04/29 01:23:25;;;;;;;2.30;1.70;;;20.60;31.50;;;;;;8392782;28;20028;-58
2021/04/29 01:27:27;;;;;;;2.00;1.80;;;20.60;31.50;;;;;;8390627;28;20057;-58
2021/04/29 01:31:36;;;;;;;2.33;1.60;;;20.60;31.50;;;;;;8366941;28;20041;-58
2021/04/29 01:35:37;;;;;;;2.47;1.70;;;20.60;31.50;;;;;;8391724;28;20086;-59
2021/04/29 01:39:39;;;;;;;3.10;1.70;;;20.60;31.60;;;;;;8393864;28;20367;-58
2021/04/29 01:43:40;;;;;;;2.15;1.75;;;20.60;31.50;;;;;;8395622;28;20037;-58
2021/04/29 01:47:41;;;;;;;2.80;1.55;;;20.60;31.60;;;;;;8399574;28;20040;-58
2021/04/29 01:51:43;;;;;;;2.30;1.42;;;20.50;31.50;;;;;;8394522;28;20404;-58
2021/04/29 01:55:45;;;;;;;2.17;1.40;;;20.60;31.50;;;;;;8394983;28;20033;-59
2021/04/29 01:59:46;;;;;;;2.92;1.60;;;20.50;31.50;;;;;;8394743;28;20028;-57
2021/04/29 02:03:47;;;;;;;1.83;1.47;;;20.50;31.50;;;;;;8393109;28;20440;-57
2021/04/29 02:07:47;;;;;;;1.95;1.52;;;20.50;31.50;;;;;;8399078;28;20370;-60
2021/04/29 02:11:57;;;;;;;2.60;1.90;;;20.50;31.50;;;;;;8394566;28;20050;-58
2021/04/29 02:16:05;;;;;;;2.05;1.65;;;20.50;31.50;;;;;;8384376;28;20040;-58
2021/04/29 02:20:06;;;;;;;2.22;1.48;;;20.50;31.50;;;;;;8378690;28;20052;-59
2021/04/29 02:24:10;;;;;;;2.40;1.38;;;20.50;31.60;;;;;;8394558;28;20040;-58
2021/04/29 02:28:11;;;;;;;1.77;1.30;;;20.50;31.50;;;;;;8395491;28;20040;-58
2021/04/29 02:32:13;;;;;;;2.17;1.47;;;20.50;31.60;;;;;;8393605;28;20162;-58
2021/04/29 02:36:15;;;;;;;2.38;1.55;;;20.50;31.60;;;;;;8391360;28;20366;-58
2021/04/29 02:40:16;;;;;;;;;;;20.50;31.50;;;;;;8393835;28;20040;-58
2021/04/29 02:44:17;;;;;;;2.03;1.40;;;20.50;31.60;;;;;;8397848;28;19977;-58
2021/04/29 02:48:19;;;;;;;2.40;1.43;;;20.40;31.50;;;;;;8391609;28;20040;-59
2021/04/29 02:52:20;;;;;;;1.80;1.30;;;20.40;31.50;;;;;;8393397;28;20136;-57
2021/04/29 02:56:21;;;;;;;1.90;1.23;;;20.40;31.50;;;;;;8392937;28;20044;-58
2021/04/29 03:00:21;;;;;;;1.60;1.27;;;20.40;31.50;;;;;;8395690;28;20035;-58
2021/04/29 03:04:22;;;;;;;1.93;1.50;;;20.40;31.50;;;;;;8392787;28;20044;-58
2021/04/29 03:08:22;;;;;;;1.37;1.27;;;20.40;31.50;;;;;;8392187;28;20039;-59
2021/04/29 03:12:23;;;;;;;3.07;1.57;;;20.40;31.50;;;;;;8390958;28;20479;-59
2021/04/29 03:16:23;;;;;;;1.87;1.40;;;20.40;31.60;;;;;;8392546;28;20074;-58
2021/04/29 03:20:24;;;;;;;2.03;1.57;;;20.40;31.50;;;;;;8396988;28;20035;-59
2021/04/29 03:24:25;;;;;;;1.40;1.30;;;20.40;31.60;;;;;;8390599;28;20032;-60
2021/04/29 03:28:25;;;;;;;1.60;1.50;;;20.40;31.50;;;;;;8392065;28;20063;-57
2021/04/29 03:32:26;;;;;;;1.83;1.43;;;20.40;31.50;;;;;;8391565;28;20033;-58
2021/04/29 03:36:27;;;;;;;1.67;1.10;;;20.40;31.50;;;;;;8394686;28;20043;-58
2021/04/29 03:40:27;;;;;;;1.50;1.40;;;20.40;31.50;;;;;;8391783;28;20039;-58
2021/04/29 03:44:28;;;;;;;1.30;1.10;;;20.40;31.40;;;;;;8391356;28;20060;-58
2021/04/29 03:48:28;;;;;;;1.53;1.10;;;20.40;31.40;;;;;;8389722;28;20044;-58
2021/04/29 03:52:29;;;;;;;2.07;1.23;;;20.40;31.20;;;;;;8395969;28;20502;-58
2021/04/29 03:56:29;;;;;;;1.83;1.30;;;20.40;31.20;;;;;;8391294;28;20036;-59
2021/04/29 04:00:30;;;;;;;1.57;1.20;;;20.40;31.10;;;;;;8390161;28;20059;-58
2021/04/29 04:04:30;;;;;;;1.23;1.13;;;20.40;31.10;;;;;;8391151;28;20079;-58
2021/04/29 04:08:31;;;;;;;2.07;1.20;;;20.40;31.10;;;;;;8391450;28;20869;-58
2021/04/29 04:12:31;;;;;;;1.97;1.37;;;20.40;31.10;;;;;;8393882;28;20044;-58
2021/04/29 04:16:32;;;;;;;1.37;1.10;;;20.40;31.10;;;;;;8391063;28;20037;-58
2021/04/29 04:20:32;;;;;;;1.27;1.17;;;20.40;31.10;;;;;;8391022;28;20482;-59
2021/04/29 04:24:33;;;;;;;2.23;1.53;;;20.40;31.10;;;;;;8382884;28;20094;-59
2021/04/29 04:28:33;;;;;;;1.23;1.10;;;20.30;31.10;;;;;;8362202;28;20033;-59
2021/04/29 04:32:34;;;;;;;1.53;1.43;;;20.40;31.20;;;;;;8388046;28;20048;-60
2021/04/29 04:36:35;;;;;;;1.27;1.03;;;20.30;31.20;;;;;;8389081;28;20076;-58
2021/04/29 04:40:35;;;;;;;1.57;1.20;;;20.30;31.20;;;;;;8389406;28;20080;-59
2021/04/29 04:44:36;;;;;;;1.97;1.20;;;20.40;31.30;;;;;;8391512;28;20032;-59
2021/04/29 04:48:37;;;;;;;1.90;1.37;;;20.40;31.30;;;;;;8392237;28;20048;-59
2021/04/29 04:52:37;;;;;;;1.87;1.17;;;20.30;31.30;;;;;;8390333;28;20083;-58
2021/04/29 04:56:38;;;;;;;2.10;1.30;;;20.30;31.30;;;;;;8391383;28;20025;-58
2021/04/29 05:00:39;;;;;;;1.30;1.20;;;20.30;31.40;;;;;;8395045;28;20050;-58
2021/04/29 05:04:39;;;;;;;1.48;1.17;;;20.30;31.30;;;;;;8401157;28;20446;-59
2021/04/29 05:08:40;;;;;;;1.30;1.00;;;20.30;31.30;;;;;;8396022;28;20029;-59
2021/04/29 05:12:40;;;;;;;2.53;1.10;;;20.30;31.40;;;;;;8394269;28;20044;-57
2021/04/29 05:16:43;;;;;;;1.97;1.10;;;20.30;31.40;;;;;;8388898;28;20033;-58
2021/04/29 05:20:44;;;;;;;1.60;1.30;;;20.30;31.40;;;;;;8367337;28;20155;-59
2021/04/29 05:24:45;;;;;;;1.95;1.30;;;20.30;31.40;;;;;;8393130;28;20131;-58
2021/04/29 05:28:45;;;;;;;2.07;1.37;;;20.30;32.00;;;;;;8395649;28;20489;-57
2021/04/29 05:32:47;;;;;;;2.30;1.23;;;20.30;31.50;;;;;;8395613;28;20443;-58
2021/04/29 05:36:48;;;;;;;4.97;1.23;;;20.30;31.50;;;;;;8393525;28;20489;-60
2021/04/29 05:40:49;;;;;;;1.57;1.20;;;20.30;31.50;;;;;;8399879;28;20033;-60
2021/04/29 05:44:49;;;;;;;1.43;1.30;;;20.30;31.50;;;;;;8394453;28;20037;-58
2021/04/29 05:48:50;;;;;;;2.57;1.50;;;20.30;31.50;;;;;;8393404;28;20481;-58
2021/04/29 05:52:50;;;;;;;2.00;1.20;;;20.30;31.50;;;;;;8390132;28;20776;-58
2021/04/29 05:56:51;;;;;;;2.93;1.10;;;20.30;31.50;;;;;;8366135;28;20036;-59
2021/04/29 06:00:51;;;;;;;1.43;1.17;;;20.30;31.60;;;;;;8389246;28;20398;-59
2021/04/29 06:04:52;;;;;;;1.60;1.20;;;20.30;31.60;;;;;;8394416;28;20043;-57
2021/04/29 06:08:53;;;;;;;1.37;1.13;;;20.30;31.60;;;;;;8393620;28;20041;-59
2021/04/29 06:12:53;;;;;;;1.33;1.20;;;20.30;31.60;;;;;;8397248;28;20497;-59
2021/04/29 06:16:54;;;;;;;2.13;1.60;;;20.30;31.60;;;;;;8394100;28;20504;-59
2021/04/29 06:20:54;;;;;;;3.27;1.23;;;20.30;31.60;;;;;;8394154;28;20036;-59
2021/04/29 06:24:55;;;;;;;1.43;1.27;;;20.30;31.60;;;;;;8392211;28;20040;-59
2021/04/29 06:28:55;;;;;;;2.03;1.43;;;20.30;31.60;;;;;;8393965;28;20037;-59
2021/04/29 06:32:56;;;;;;;2.27;1.27;;;20.30;31.50;;;;;;8396692;28;20140;-56
2021/04/29 06:36:56;;;;;;;1.50;1.40;;;20.30;32.20;;;;;;8367884;28;20351;-58
2021/04/29 06:40:57;;;;;;;3.53;1.27;;;20.30;31.60;;;;;;8377037;28;20044;-58
2021/04/29 06:44:58;;;;;;;1.40;1.20;;;20.30;31.50;;;;;;8391475;28;20029;-59
2021/04/29 06:48:59;;;;;;;1.90;1.15;;;20.30;31.60;;;;;;8397916;28;20061;-60
2021/04/29 06:52:59;;;;;;;1.50;1.30;;;20.30;31.50;;;;;;8392949;28;20058;-59
2021/04/29 06:57:00;;;;;;;2.80;1.73;;;20.30;31.50;;;;;;8389962;28;20032;-60
2021/04/29 07:01:01;;;;;;;2.07;1.30;;;20.30;31.50;;;;;;8391932;28;20056;-59
2021/04/29 07:05:03;;;;;;;1.15;1.02;;;20.30;31.50;;;;;;8392939;28;20025;-59
2021/04/29 07:09:04;;;;;;;4.68;1.63;;;20.30;31.50;;;;;;8394124;28;20039;-60
2021/04/29 07:13:05;;;;;;;1.52;1.25;;;20.30;31.50;;;;;;8392273;28;20051;-60
2021/04/29 07:17:06;;;;;;;1.33;1.15;;;20.30;32.10;;;;;;8391739;28;20417;-59
2021/04/29 07:21:06;;;;;;;1.70;1.33;;;20.30;31.60;;;;;;8389777;28;20068;-57
2021/04/29 07:25:07;;;;;;;1.80;1.40;;;20.30;31.50;;;;;;8396393;28;20035;-59
2021/04/29 07:29:08;;;;;;;1.83;1.20;;;20.30;31.50;;;;;;8392079;28;20037;-58
2021/04/29 07:33:11;;;;;;;1.70;1.30;;;20.30;31.60;;;;;;8371973;28;20584;-59
2021/04/29 07:37:11;;;;;;;1.40;1.30;;;20.40;31.60;;;;;;8367528;28;20032;-60
2021/04/29 07:41:12;;;;;;;1.53;1.40;;;20.40;31.60;;;;;;8396121;28;20500;-60
2021/04/29 07:45:13;;;;;;;2.90;1.40;;;20.40;31.60;;;;;;8389419;28;20045;-58
2021/04/29 07:49:14;;;;;;;1.98;1.33;;;20.40;31.60;;;;;;8391722;28;20481;-59
2021/04/29 07:53:14;;;;;;;1.37;1.10;;;20.40;31.60;;;;;;8391262;28;20511;-58
2021/04/29 07:57:16;;;;;;;1.57;1.20;;;20.40;31.60;;;;;;8389528;28;20058;-59
2021/04/29 08:01:16;;;;;;;2.20;1.05;;;20.40;31.60;;;;;;8395524;28;20756;-58
2021/04/29 08:05:17;;;;;;;2.30;1.33;;;20.40;31.60;;;;;;8391240;28;20043;-59
2021/04/29 08:09:17;;;;;;;2.80;1.20;;;20.40;31.60;;;;;;8389587;28;20036;-58
2021/04/29 08:13:18;;;;;;;1.50;1.20;;;20.50;31.70;;;;;;8391216;28;20866;-59
2021/04/29 08:17:18;;;;;;;1.53;1.20;;;20.50;31.60;;;;;;8395587;28;20044;-58
2021/04/29 08:21:19;;;;;;;1.47;1.30;;;20.50;31.60;;;;;;8389136;28;20474;-58
2021/04/29 08:25:20;;;;;;;1.30;1.20;;;20.50;31.60;;;;;;8391090;28;20033;-58
2021/04/29 08:29:20;;;;;;;1.73;1.30;;;20.50;31.60;;;;;;8390745;28;20035;-58
2021/04/29 08:33:21;;;;;;;1.27;1.13;;;20.50;31.60;;;;;;8398928;28;20534;-58
2021/04/29 08:37:21;;;;;;;1.38;1.20;;;20.50;31.60;;;;;;8398077;28;20040;-57
2021/04/29 08:41:22;;;;;;;1.43;1.23;;;20.50;31.50;;;;;;8397185;28;20037;-57
2021/04/29 08:45:23;;;;;;;1.63;1.33;;;20.60;31.60;;;;;;8395107;28;20029;-57
2021/04/29 08:49:26;;;;;;;1.52;1.10;;;20.60;31.50;;;;;;8397128;28;20037;-58
2021/04/29 08:53:26;;;;;;;3.10;1.52;;;20.60;31.40;;;;;;8400978;28;20535;-57
2021/04/29 08:57:27;;;;;;;1.37;1.03;;;20.60;31.40;;;;;;8370118;28;20060;-59
2021/04/29 09:01:41;;;;;;;1.97;1.30;;;20.60;31.40;;;;;;8396389;28;20147;-57
2021/04/29 09:05:47;;;;;;;1.75;1.30;;;20.60;31.40;;;;;;8396783;28;20040;-58
2021/04/29 09:09:47;;;;;;;1.67;1.20;;;20.70;31.50;;;;;;8396753;28;20025;-57
2021/04/29 09:13:57;;;;;;;1.63;1.37;;;20.70;31.40;;;;;;8398251;28;20040;-58
2021/04/29 09:18:11;;;;;;;1.35;1.20;;;20.70;31.40;;;;;;8394455;28;20409;-57
2021/04/29 09:22:17;;;;;;;1.83;1.10;;;20.70;31.40;;;;;;8385638;28;20040;-58
2021/04/29 09:26:19;;;;;;;1.52;1.15;;;20.70;31.40;;;;;;8382198;28;20028;-58
2021/04/29 09:30:25;;;;;;;1.48;1.30;;;20.70;31.30;;;;;;8398677;28;20462;-57
2021/04/29 09:34:25;;;;;;;1.70;1.15;;;20.70;31.90;;;;;;8395247;28;20060;-60
2021/04/29 09:38:35;;;;;;;2.87;1.27;;;20.80;31.40;;;;;;8394640;28;20037;-57
2021/04/29 09:42:37;;;;;;;1.40;1.02;;;20.80;31.40;;;;;;8393039;28;20091;-59
2021/04/29 09:46:40;;;;;;;;;;;20.80;31.30;;;;;;8395772;28;20032;-59
2021/04/29 09:50:42;;;;;;;2.90;1.60;;;20.80;31.30;;;;;;8399474;28;20003;-59
2021/04/29 09:54:46;;;;;;;2.05;1.40;;;20.80;31.30;;;;;;8393359;28;20521;-59
2021/04/29 09:58:55;;;;;;;1.33;1.23;;;20.80;31.30;;;;;;8394944;28;20037;-58
2021/04/29 10:02:56;;;;;;;1.63;1.20;;;20.90;31.30;;;;;;8394130;28;20056;-59
2021/04/29 10:07:00;;;;;;;1.52;1.40;;;20.80;31.20;;;;;;8397714;28;20078;-58
2021/04/29 10:11:03;;;;;;;1.13;1.02;;;20.90;31.20;;;;;;8396810;28;20409;-59
2021/04/29 10:15:04;;;;;;;2.78;1.50;;;20.90;31.20;;;;;;8393565;28;20024;-59
2021/04/29 10:19:05;;;;;;;2.38;1.50;;;20.80;31.20;;;;;;8394106;28;20040;-59
2021/04/29 10:23:11;;;;;;;1.53;1.20;;;20.80;31.20;;;;;;8394258;28;20036;-59
2021/04/29 10:27:17;;;;;;;1.95;1.42;;;20.80;31.30;;;;;;8395513;28;20044;-59
2021/04/29 10:31:27;;;;;;;1.90;1.40;;;20.80;31.20;;;;;;8392922;28;20040;-59
2021/04/29 10:35:28;;;;;;;1.77;1.30;;;20.80;31.30;;;;;;8393726;28;20112;-58
2021/04/29 10:39:28;;;;;;;1.60;1.30;;;20.80;31.30;;;;;;8391773;28;20033;-59
2021/04/29 10:43:38;;;;;;;1.73;1.43;;;20.80;31.30;;;;;;8393958;28;20035;-59
2021/04/29 10:47:40;;;;;;;1.65;1.38;;;20.80;31.30;;;;;;8397791;28;20037;-59
2021/04/29 10:51:43;;;;;;;1.00;1.00;;;20.70;31.30;;;;;;8391137;28;20040;-59
2021/04/29 10:55:44;;;;;;;1.30;1.02;;;20.80;31.30;;;;;;8392022;28;20037;-59
2021/04/29 10:59:47;;;;;;;1.50;1.20;;;20.80;31.30;;;;;;8392918;28;20173;-59
2021/04/29 11:03:50;;;;;;;3.28;1.70;;;20.80;31.30;;;;;;8395390;28;20100;-59
2021/04/29 11:07:51;;;;;;;1.38;1.20;;;20.80;31.30;;;;;;8392099;28;20105;-59
2021/04/29 11:12:04;;;;;;;3.88;1.60;;;20.80;31.20;;;;;;8392063;28;20041;-59
2021/04/29 11:16:04;;;;;;;2.42;1.50;;;20.80;31.20;;;;;;8356120;28;20037;-59
2021/04/29 11:20:05;;;;;;;2.13;1.57;;;20.80;31.20;;;;;;8361408;28;20045;-59
2021/04/29 11:24:06;;;;;;;2.17;1.50;;;20.80;31.20;;;;;;8394668;28;20070;-59
2021/04/29 11:28:07;;;;;;;2.47;1.70;;;20.80;31.20;;;;;;8392030;28;20068;-59
2021/04/29 11:32:08;;;;;;;3.13;1.60;;;20.80;31.20;;;;;;8391688;28;20382;-59
2021/04/29 11:36:29;;;;;;;2.67;1.93;;;20.80;31.20;;;;;;8389877;28;20381;-59
2021/04/29 11:40:32;;;;;;;4.57;1.70;;;20.80;31.20;;;;;;8396071;28;20086;-59
2021/04/29 11:44:33;;;;;;;3.70;1.60;;;20.80;31.20;;;;;;8391370;28;20085;-59
2021/04/29 11:48:33;;;;;;;3.07;1.60;;;20.80;31.20;;;;;;8389259;28;20051;-59
2021/04/29 11:52:34;;;;;;;3.53;1.57;;;20.80;31.20;;;;;;8391667;28;20052;-59
2021/04/29 11:56:43;;;;;;;2.20;1.70;;;20.80;31.20;;;;;;8391303;28;20068;-59
2021/04/29 12:00:47;;;;;;;3.00;2.00;;;20.80;31.20;;;;;;8393760;28;20029;-59
2021/04/29 12:04:49;;;;;;;1.70;1.60;;;20.90;31.10;;;;;;8391242;28;20067;-59
2021/04/29 12:08:50;;;;;;;2.72;1.55;;;20.90;31.20;;;;;;8373492;28;20036;-59
2021/04/29 12:12:51;;;;;;;2.63;1.63;;;20.80;31.10;;;;;;8364641;28;20053;-59
2021/04/29 12:16:58;;;;;;;3.43;2.40;;;20.90;31.00;;;;;;8395290;28;20477;-59
2021/04/29 12:21:00;;;;;;;3.20;1.85;;;20.90;31.00;;;;;;8389132;28;20352;-59
2021/04/29 12:25:00;;;;;;;;;;;20.90;31.10;;;;;;8369382;28;20033;-59
2021/04/29 12:29:04;;;;;;;2.03;1.47;;;20.90;31.10;;;;;;8370938;28;19947;-59
2021/04/29 12:33:17;;;;;;;2.90;1.90;;;20.90;31.00;;;;;;8386328;28;20462;-59
2021/04/29 12:37:20;;;;;;;2.25;1.83;;;20.90;31.10;;;;;;8362375;28;20040;-59
2021/04/29 12:41:26;;;;;;;2.25;1.75;;;20.90;31.00;;;;;;8386088;28;20079;-59
2021/04/29 12:45:27;;;;;;;2.92;1.70;;;20.90;31.00;;;;;;8388891;28;20044;-59
2021/04/29 12:49:28;;;;;;;2.57;1.70;;;20.90;31.00;;;;;;8390396;28;20130;-59
2021/04/29 12:53:29;;;;;;;2.53;1.40;;;21.00;31.00;;;;;;8391100;28;20047;-59
2021/04/29 12:57:29;;;;;;;3.25;1.75;;;21.00;31.00;;;;;;8391968;28;20040;-59
2021/04/29 13:01:30;;;;;;;2.00;1.70;;;21.00;31.00;;;;;;8367341;28;20037;-59
2021/04/29 13:05:30;;;;;;;2.20;1.57;;;21.00;31.00;;;;;;8366677;28;20032;-59
2021/04/29 13:09:39;;;;;;;2.40;1.60;;;21.00;31.00;;;;;;8388371;28;20037;-59
2021/04/29 13:13:39;;;;;;;2.00;1.65;;;21.00;31.00;;;;;;8382691;28;20045;-59
2021/04/29 13:17:40;;;;;;;2.10;1.63;;;21.00;31.00;;;;;;8387034;28;20386;-59
2021/04/29 13:21:43;;;;;;;2.42;1.60;;;21.00;30.90;;;;;;8394005;28;20115;-59
2021/04/29 13:25:44;;;;;;;3.00;1.90;;;21.00;31.00;;;;;;8396108;28;20446;-59
2021/04/29 13:29:44;;;;;;;2.92;1.65;;;21.00;30.90;;;;;;8399887;28;20028;-59
2021/04/29 13:33:45;;;;;;;2.73;1.80;;;21.00;30.90;;;;;;8388839;28;20048;-59
2021/04/29 13:37:46;;;;;;;2.00;1.77;;;21.00;30.90;;;;;;8384239;28;20040;-58
2021/04/29 13:41:47;;;;;;;2.67;1.60;;;21.00;31.00;;;;;;8391736;28;20508;-58
2021/04/29 13:45:48;;;;;;;2.10;1.90;;;21.00;30.90;;;;;;8393412;28;20044;-59
2021/04/29 13:49:48;;;;;;;2.23;1.60;;;21.00;30.90;;;;;;8399492;28;20056;-58
2021/04/29 13:53:49;;;;;;;3.43;1.60;;;21.00;31.00;;;;;;8380114;28;20040;-57
2021/04/29 13:57:49;;;;;;;2.60;1.60;;;21.00;31.00;;;;;;8377259;28;20040;-55
2021/04/29 14:01:51;;;;;;;3.73;2.07;;;21.00;30.90;;;;;;8393390;28;20028;-53
2021/04/29 14:05:51;;;;;;;;;;;21.00;30.90;;;;;;8399387;28;20036;-56
2021/04/29 14:09:52;;;;;;;2.07;1.50;;;21.00;31.00;;;;;;8359847;28;20348;-56
2021/04/29 14:13:52;;;;;;;1.97;1.57;;;21.00;31.00;;;;;;8344779;28;20438;-54
2021/04/29 14:17:53;;;;;;;2.15;1.75;;;21.00;31.00;;;;;;8328808;28;20069;-55
2021/04/29 14:21:55;;;;;;;3.20;1.80;;;21.00;31.00;;;;;;8327740;28;20037;-55
2021/04/29 14:25:56;;;;;;;3.78;1.90;;;21.00;31.00;;;;;;8380328;28;20352;-56
2021/04/29 14:29:56;;;;;;;1.75;1.60;;;21.00;31.00;;;;;;8390221;28;20397;-56
2021/04/29 14:33:57;;;;;;;3.07;1.80;;;21.00;31.00;;;;;;8393193;28;20059;-54
2021/04/29 14:37:58;;;;;;;1.90;1.70;;;21.00;31.00;;;;;;8393064;28;20035;-56
2021/04/29 14:42:01;;;;;;;1.67;1.57;;;21.00;31.00;;;;;;8396072;28;20029;-55
2021/04/29 14:46:01;;;;;;;2.25;1.67;;;21.00;31.00;;;;;;8366459;28;20275;-54
2021/04/29 14:50:04;;;;;;;2.80;1.80;;;21.00;31.00;;;;;;8360931;28;20037;-55
2021/04/29 14:54:05;;;;;;;2.63;1.85;;;21.00;31.00;;;;;;8366389;28;20045;-56
2021/04/29 14:58:06;;;;;;;2.33;1.50;;;21.00;31.00;;;;;;8397379;28;20374;-56
2021/04/29 15:02:06;;;;;;;2.33;1.80;;;21.00;31.00;;;;;;8392746;28;20036;-56
2021/04/29 15:06:07;;;;;;;3.70;2.00;;;21.00;31.00;;;;;;8386732;28;20085;-59
2021/04/29 15:10:08;;;;;;;2.67;1.97;;;21.00;31.00;;;;;;8382608;28;20397;-58
2021/04/29 15:14:08;;;;;;;1.75;1.60;;;21.00;31.00;;;;;;8377147;28;20041;-58
2021/04/29 15:18:09;;;;;;;1.97;1.77;;;21.00;31.00;;;;;;8395275;28;20032;-59
2021/04/29 15:22:09;;;;;;;1.90;1.67;;;21.00;31.00;;;;;;8373548;28;20045;-58
2021/04/29 15:26:10;;;;;;;2.40;1.80;;;21.00;31.00;;;;;;8374916;28;20039;-59
2021/04/29 15:30:13;;;;;;;2.47;1.90;;;21.00;30.90;;;;;;8385402;28;20083;-59
2021/04/29 15:34:14;;;;;;;2.10;1.67;;;21.00;30.90;;;;;;8395293;28;20040;-57
2021/04/29 15:38:14;;;;;;;2.30;1.70;;;21.00;30.90;;;;;;8360198;28;20555;-58
2021/04/29 15:42:15;;;;;;;2.07;1.73;;;21.00;30.90;;;;;;8373834;28;20037;-57
2021/04/29 15:46:16;;;;;;;2.50;1.60;;;21.00;30.90;;;;;;8358390;28;20132;-56
2021/04/29 15:50:17;;;;;;;1.95;1.60;;;21.00;30.90;;;;;;8360479;28;20478;-56
2021/04/29 15:54:18;;;;;;;1.92;1.60;;;21.00;30.90;;;;;;8386130;28;20044;-55
2021/04/29 15:58:18;;;;;;;1.92;1.70;;;21.00;31.00;;;;;;8390977;28;20386;-56
2021/04/29 16:02:19;;;;;;;2.50;1.93;;;21.00;31.00;;;;;;8378336;28;20080;-56
2021/04/29 16:06:19;;;;;;;1.70;1.53;;;21.00;30.90;;;;;;8359712;28;20047;-54
2021/04/29 16:10:20;;;;;;;2.40;2.07;;;21.00;30.90;;;;;;8395456;28;20042;-56
2021/04/29 16:14:21;;;;;;;3.77;1.90;;;21.00;31.00;;;;;;8389497;28;20045;-56
2021/04/29 16:18:21;;;;;;;1.83;1.63;;;21.00;30.90;;;;;;8389449;28;20044;-56
2021/04/29 16:22:22;;;;;;;3.13;1.90;;;21.00;30.90;;;;;;8390734;28;20094;-57
2021/04/29 16:26:23;;;;;;;3.05;1.90;;;21.00;30.90;;;;;;8395201;28;20036;-57
2021/04/29 16:30:23;;;;;;;2.93;1.70;;;21.00;30.90;;;;;;8379636;28;20040;-56
2021/04/29 16:34:25;;;;;;;2.07;1.67;;;21.00;30.90;;;;;;8390752;28;20048;-57
2021/04/29 16:38:25;;;;;;;2.67;1.90;;;21.00;30.90;;;;;;8390334;27;20033;-56
2021/04/29 16:42:26;;;;;;;2.17;1.60;;;21.00;31.00;;;;;;8387524;28;20452;-56
2021/04/29 16:46:26;;;;;;;1.90;1.60;;;21.00;31.00;;;;;;8362127;28;20512;-56
2021/04/29 16:50:27;;;;;;;2.30;1.97;;;21.00;31.00;;;;;;8381675;28;20550;-54
2021/04/29 16:54:28;;;;;;;2.43;1.83;;;21.00;30.90;;;;;;8378459;28;20044;-58
2021/04/29 16:58:28;;;;;;;2.33;1.80;;;21.00;30.90;;;;;;8368583;28;20040;-57
2021/04/29 17:02:29;;;;;;;2.67;2.10;;;21.00;31.00;;;;;;8400310;28;20107;-58
2021/04/29 17:06:30;;;;;;;2.28;1.70;;;21.00;31.00;;;;;;8369857;28;20036;-57
2021/04/29 17:10:31;;;;;;;3.30;2.10;;;21.00;31.00;;;;;;8396150;28;20028;-58
2021/04/29 17:14:31;;;;;;;3.00;2.27;;;21.00;31.00;;;;;;8396012;28;20040;-53
2021/04/29 17:18:32;;;;;;;2.30;2.10;;;21.00;31.00;;;;;;8399066;28;20064;-55
2021/04/29 17:22:32;;;;;;;2.63;1.90;;;21.00;31.00;;;;;;8365174;28;20128;-55
2021/04/29 17:26:33;;;;;;;3.07;2.30;;;21.00;31.00;;;;;;8384948;28;20274;-55
2021/04/29 17:30:34;;;;;;;2.70;1.93;;;21.00;31.00;;;;;;8376150;28;20033;-56
2021/04/29 17:34:35;;;;;;;2.40;1.70;;;21.00;31.00;;;;;;8331831;28;20049;-56
2021/04/29 17:38:36;;;;;;;;;;;21.00;31.00;;;;;;8345207;28;20036;-55
2021/04/29 17:42:38;;;;;;;2.73;1.57;;;21.00;31.00;;;;;;8352857;28;19917;-56
2021/04/29 17:46:38;;;;;;;4.32;2.00;;;20.90;31.00;;;;;;8362076;28;20037;-56
2021/04/29 17:50:39;;;;;;;2.67;2.10;;;20.90;30.90;;;;;;8361844;28;20059;-55
2021/04/29 17:54:39;;;;;;;2.70;1.97;;;20.90;31.00;;;;;;8381647;28;20049;-55
2021/04/29 17:58:40;;;;;;;3.83;2.00;;;20.90;31.00;;;;;;8362642;28;20065;-56
2021/04/29 18:02:41;;;;;;;2.83;1.93;;;21.00;31.00;;;;;;8381734;28;20085;-56
2021/04/29 18:06:42;;;;;;;3.08;1.95;;;20.90;31.00;;;;;;8392454;28;20035;-55
2021/04/29 18:10:42;;;;;;;2.10;1.90;;;20.90;31.50;;;;;;8395998;28;20029;-55
2021/04/29 18:14:43;;;;;;;1.93;1.77;;;20.90;31.60;;;;;;8364672;28;20389;-55
2021/04/29 18:18:43;;;;;;;2.00;1.53;;;20.90;31.00;;;;;;8383236;28;20283;-56
2021/04/29 18:22:44;;;;;;;2.83;1.53;;;20.90;31.00;;;;;;8394479;28;20094;-57
2021/04/29 18:26:45;;;;;;;4.07;1.83;;;20.90;31.00;;;;;;8393763;28;20033;-57
2021/04/29 18:30:45;;;;;;;2.47;2.10;;;20.90;31.00;;;;;;8379666;28;20040;-58
2021/04/29 18:34:46;;;;;;;2.20;1.93;;;20.90;31.00;;;;;;8393829;28;20072;-58
2021/04/29 18:38:46;;;;;;;3.37;2.03;;;20.90;31.10;;;;;;8377258;28;20041;-57
2021/04/29 18:42:47;;;;;;;3.20;1.83;;;20.90;31.10;;;;;;8372948;27;20116;-57
2021/04/29 18:46:49;;;;;;;2.78;1.60;;;20.90;31.10;;;;;;8374400;28;20033;-58
2021/04/29 18:50:50;;;;;;;1.95;1.73;;;20.90;31.10;;;;;;8391111;28;20032;-58
2021/04/29 18:54:51;;;;;;;3.10;1.98;;;20.90;31.10;;;;;;8338589;28;20076;-58
2021/04/29 18:58:51;;;;;;;1.93;1.73;;;20.90;31.10;;;;;;8338267;28;20041;-58
2021/04/29 19:02:52;;;;;;;2.20;1.70;;;20.90;31.10;;;;;;8366691;28;20100;-56
2021/04/29 19:06:53;;;;;;;1.97;1.77;;;20.90;31.10;;;;;;8362696;28;20037;-59
2021/04/29 19:10:53;;;;;;;3.88;2.10;;;20.90;31.10;;;;;;8384348;28;20390;-59
2021/04/29 19:14:57;;;;;;;2.20;1.63;;;20.90;31.20;;;;;;8367901;28;20523;-59
2021/04/29 19:18:57;;;;;;;2.60;2.40;;;20.90;31.70;;;;;;8390872;28;20047;-58
2021/04/29 19:22:58;;;;;;;3.70;1.60;;;20.90;31.20;;;;;;8396675;28;20028;-58
2021/04/29 19:26:58;;;;;;;2.30;1.93;;;20.80;31.20;;;;;;8390777;28;20033;-59
2021/04/29 19:31:00;;;;;;;2.53;1.83;;;20.80;31.20;;;;;;8374055;28;20578;-58
2021/04/29 19:35:02;;;;;;;2.45;1.58;;;20.80;31.20;;;;;;8368301;28;20404;-58
2021/04/29 19:39:03;;;;;;;2.15;1.80;;;20.80;31.20;;;;;;8394635;28;20048;-59
2021/04/29 19:43:06;;;;;;;2.28;1.98;;;20.80;31.30;;;;;;8392183;28;20033;-58
2021/04/29 19:47:07;;;;;;;2.83;2.15;;;20.80;31.30;;;;;;8391857;28;20043;-60
2021/04/29 19:51:07;;;;;;;1.97;1.73;;;20.80;31.30;;;;;;8389593;28;20029;-58
2021/04/29 19:55:09;;;;;;;2.20;2.00;;;20.80;31.40;;;;;;8388222;28;20446;-59
2021/04/29 19:59:10;;;;;;;2.15;1.67;;;20.80;31.40;;;;;;8362541;28;20040;-58
2021/04/29 20:03:10;;;;;;;2.87;2.07;;;20.80;31.40;;;;;;8383124;28;20068;-58
2021/04/29 20:07:11;;;;;;;2.80;2.10;;;20.80;31.40;;;;;;8391510;28;20060;-57
2021/04/29 20:11:12;;;;;;;2.05;1.70;;;20.80;31.50;;;;;;8391257;28;20074;-57
2021/04/29 20:15:13;;;;;;;3.17;1.97;;;20.70;31.40;;;;;;8394028;28;20037;-57
2021/04/29 20:19:13;;;;;;;2.50;1.80;;;20.80;31.50;;;;;;8391435;28;20477;-57
2021/04/29 20:23:14;;;;;;;2.20;2.00;;;20.70;31.50;;;;;;8391020;28;20086;-58
2021/04/29 20:27:15;;;;;;;2.37;1.80;;;20.80;31.50;;;;;;8391311;28;20025;-58
2021/04/29 20:31:15;;;;;;;2.00;1.80;;;20.80;31.50;;;;;;8398056;28;20029;-58
2021/04/29 20:35:16;;;;;;;2.63;1.80;;;20.80;31.50;;;;;;8382615;28;20390;-58
2021/04/29 20:39:16;;;;;;;2.63;1.80;;;20.80;31.50;;;;;;8365947;28;20040;-59
2021/04/29 20:43:17;;;;;;;3.03;1.87;;;20.70;31.50;;;;;;8397558;28;20037;-58
2021/04/29 20:47:17;;;;;;;1.80;1.70;;;20.80;31.50;;;;;;8396883;28;20473;-58
2021/04/29 20:51:18;;;;;;;2.23;1.90;;;20.80;31.50;;;;;;8397213;28;20470;-58
2021/04/29 20:55:20;;;;;;;1.88;1.75;;;20.70;31.50;;;;;;8375265;28;20401;-58
2021/04/29 20:59:21;;;;;;;1.77;1.67;;;20.80;31.60;;;;;;8396728;28;20054;-58